createdAt,value
2018-11-28T04:47:02.914Z,0.00
2018-11-28T04:48:02.906Z,0.00
2018-11-28T04:57:02.806Z,4.00
2018-11-28T04:58:02.792Z,4.00
2018-11-28T04:59:02.785Z,4.00
2018-11-28T05:00:02.820Z,4.00
2018-11-28T05:01:02.756Z,4.00
2018-11-28T05:02:02.746Z,4.00
2018-11-28T05:03:02.735Z,4.00
2018-11-28T05:04:02.726Z,4.00
2018-11-28T05:05:02.713Z,4.00
2018-11-28T05:06:02.702Z,4.00
2018-11-28T05:07:02.696Z,4.00
2018-11-28T05:08:02.684Z,4.00
2018-11-28T05:09:02.676Z,4.00
2018-11-28T05:10:02.681Z,4.00
2018-11-28T06:06:02.047Z,4.00
2018-11-28T06:11:01.986Z,4.00
2018-11-28T06:13:01.963Z,4.00
2018-11-28T06:27:01.809Z,24.00
2018-11-28T06:39:01.680Z,108.00
2018-11-28T06:40:01.666Z,120.00
2018-11-28T06:41:01.651Z,132.00
2018-11-28T06:42:01.639Z,144.00
2018-11-28T06:43:01.630Z,160.00
2018-11-28T06:44:01.624Z,172.00
2018-11-28T06:45:01.610Z,188.00
2018-11-28T06:46:01.598Z,204.00
2018-11-28T06:47:01.591Z,220.00
2018-11-28T06:48:01.580Z,240.00
2018-11-28T06:49:01.566Z,256.00
2018-11-28T06:50:01.572Z,272.00
2018-11-28T06:51:01.544Z,292.00
2018-11-28T06:52:01.534Z,316.00
2018-11-28T06:53:01.524Z,336.00
2018-11-28T06:54:01.508Z,360.00
2018-11-28T06:55:01.499Z,380.00
2018-11-28T06:56:01.490Z,404.00
2018-11-28T06:57:01.473Z,428.00
2018-11-28T06:58:01.465Z,452.00
2018-11-28T06:59:01.556Z,480.00
2018-11-28T07:00:01.445Z,508.00
2018-11-28T07:01:01.428Z,532.00
2018-11-28T07:02:01.417Z,564.00
2018-11-28T07:03:01.412Z,588.00
2018-11-28T07:04:01.400Z,616.00
2018-11-28T07:05:01.386Z,648.00
2018-11-28T07:06:01.377Z,680.00
2018-11-28T07:07:01.387Z,708.00
2018-11-28T07:08:01.388Z,736.00
2018-11-28T07:09:01.378Z,768.00
2018-11-28T07:10:01.336Z,800.00
2018-11-28T07:11:01.329Z,828.00
2018-11-28T07:12:01.331Z,864.00
2018-11-28T07:13:01.330Z,896.00
2018-11-28T07:14:01.336Z,924.00
2018-11-28T07:15:01.274Z,992.00
2018-11-28T07:16:01.274Z,1020.00
2018-11-28T07:17:01.257Z,1052.00
2018-11-28T07:18:01.242Z,1084.00
2018-11-28T07:19:01.228Z,1116.00
2018-11-28T07:20:01.218Z,1148.00
2018-11-28T07:21:01.209Z,1184.00
2018-11-28T07:22:01.197Z,1216.00
2018-11-28T07:23:01.187Z,1248.00
2018-11-28T07:24:01.175Z,1288.00
2018-11-28T07:25:01.169Z,1320.00
2018-11-28T07:26:01.160Z,1356.00
2018-11-28T07:27:01.147Z,1380.00
2018-11-28T07:28:01.128Z,1416.00
2018-11-28T07:29:01.120Z,1464.00
2018-11-28T07:30:01.106Z,1480.00
2018-11-28T07:31:01.103Z,1516.00
2018-11-28T07:32:01.088Z,1548.00
2018-11-28T07:33:01.072Z,1572.00
2018-11-28T07:34:01.064Z,1612.00
2018-11-28T07:35:01.050Z,1644.00
2018-11-28T07:36:01.045Z,1664.00
2018-11-28T07:37:01.030Z,1696.00
2018-11-28T07:38:01.026Z,1736.00
2018-11-28T07:39:01.007Z,1768.00
2018-11-28T07:40:00.995Z,1796.00
2018-11-28T07:41:00.984Z,1824.00
2018-11-28T07:42:00.974Z,1856.00
2018-11-28T07:43:00.966Z,1884.00
2018-11-28T07:44:00.954Z,1916.00
2018-11-28T07:45:00.948Z,1948.00
2018-11-28T07:46:00.927Z,1992.00
2018-11-28T07:47:00.918Z,2020.00
2018-11-28T07:48:00.917Z,2048.00
2018-11-28T07:49:00.908Z,2088.00
2018-11-28T07:50:00.889Z,2132.00
2018-11-28T07:51:00.930Z,2148.00
2018-11-28T07:52:00.867Z,2160.00
2018-11-28T07:53:00.853Z,2172.00
2018-11-28T07:54:00.845Z,2208.00
2018-11-28T07:55:00.831Z,2244.00
2018-11-28T07:56:00.823Z,2300.00
2018-11-28T07:57:00.810Z,2376.00
2018-11-28T07:58:00.801Z,2444.00
2018-11-28T07:59:00.836Z,2516.00
2018-11-28T08:00:00.774Z,2548.00
2018-11-28T08:01:00.770Z,2548.00
2018-11-28T08:02:00.754Z,2572.00
2018-11-28T08:03:00.742Z,2596.00
2018-11-28T08:04:00.746Z,2600.00
2018-11-28T08:05:00.717Z,2628.00
2018-11-28T08:06:00.714Z,2672.00
2018-11-28T08:07:00.695Z,2724.00
2018-11-28T08:08:00.689Z,2788.00
2018-11-28T08:09:00.681Z,2844.00
2018-11-28T08:10:00.663Z,2868.00
2018-11-28T08:11:00.652Z,2940.00
2018-11-28T08:12:00.654Z,3080.00
2018-11-28T08:13:00.633Z,3176.00
2018-11-28T08:14:00.624Z,3328.00
2018-11-28T08:15:00.609Z,3444.00
2018-11-28T08:16:00.602Z,3588.00
2018-11-28T08:17:00.598Z,3872.00
2018-11-28T08:18:00.579Z,4032.00
2018-11-28T08:19:00.566Z,4212.00
2018-11-28T08:20:00.554Z,4264.00
2018-11-28T08:21:00.545Z,3972.00
2018-11-28T08:22:00.535Z,3564.00
2018-11-28T08:23:00.519Z,3220.00
2018-11-28T08:24:00.509Z,3232.00
2018-11-28T08:25:00.505Z,3504.00
2018-11-28T08:26:00.496Z,3444.00
2018-11-28T08:27:01.723Z,3300.00
2018-11-28T08:28:00.519Z,3368.00
2018-11-28T08:29:00.451Z,3616.00
2018-11-28T08:30:00.441Z,3852.00
2018-11-28T08:31:00.429Z,3928.00
2018-11-28T08:32:00.420Z,4012.00
2018-11-28T08:33:00.412Z,4088.00
2018-11-28T08:34:00.397Z,4568.00
2018-11-28T08:35:00.384Z,5120.00
2018-11-28T08:36:00.375Z,5236.00
2018-11-28T08:37:00.362Z,5268.00
2018-11-28T08:38:00.351Z,5348.00
2018-11-28T08:39:01.705Z,5388.00
2018-11-28T08:40:00.329Z,5440.00
2018-11-28T08:41:00.318Z,5552.00
2018-11-28T08:42:00.309Z,5576.00
2018-11-28T08:43:00.296Z,5648.00
2018-11-28T08:44:00.286Z,5708.00
2018-11-28T08:45:00.279Z,5784.00
2018-11-28T08:46:00.267Z,5864.00
2018-11-28T08:47:00.252Z,5908.00
2018-11-28T08:48:00.240Z,5968.00
2018-11-28T08:49:00.241Z,5988.00
2018-11-28T08:50:00.217Z,6000.00
2018-11-28T08:51:00.212Z,6084.00
2018-11-28T08:52:00.197Z,6140.00
2018-11-28T08:53:00.206Z,6180.00
2018-11-28T08:54:00.174Z,6268.00
2018-11-28T08:55:00.168Z,6320.00
2018-11-28T08:56:00.151Z,6400.00
2018-11-28T08:57:00.157Z,6452.00
2018-11-28T08:58:00.128Z,6516.00
2018-11-28T08:59:00.117Z,6532.00
2018-11-28T09:00:00.107Z,6616.00
2018-11-28T09:01:00.104Z,6624.00
2018-11-28T09:02:00.087Z,6612.00
2018-11-28T09:03:00.125Z,6648.00
2018-11-28T09:04:00.061Z,6656.00
2018-11-28T09:05:00.062Z,6708.00
2018-11-28T09:06:00.039Z,6772.00
2018-11-28T09:07:00.031Z,6836.00
2018-11-28T09:08:00.026Z,6836.00
2018-11-28T09:09:00.005Z,6912.00
2018-11-28T09:09:59.994Z,6864.00
2018-11-28T09:11:00.003Z,6948.00
2018-11-28T09:11:59.974Z,6928.00
2018-11-28T09:13:04.041Z,6912.00
2018-11-28T09:14:04.396Z,6984.00
2018-11-28T09:14:59.974Z,7008.00
2018-11-28T09:15:59.930Z,6988.00
2018-11-28T09:16:59.940Z,7012.00
2018-11-28T09:17:59.952Z,7092.00
2018-11-28T09:18:59.942Z,7092.00
2018-11-28T09:19:59.889Z,7100.00
2018-11-28T09:20:59.891Z,7096.00
2018-11-28T09:21:59.862Z,7120.00
2018-11-28T09:22:59.853Z,7176.00
2018-11-28T09:23:59.841Z,7236.00
2018-11-28T09:24:59.835Z,7236.00
2018-11-28T09:25:59.818Z,7264.00
2018-11-28T09:26:59.805Z,7256.00
2018-11-28T09:27:59.794Z,7328.00
2018-11-28T09:28:59.786Z,7368.00
2018-11-28T09:29:59.770Z,7380.00
2018-11-28T09:30:59.760Z,7424.00
2018-11-28T09:31:59.748Z,7492.00
2018-11-28T09:32:59.735Z,7548.00
2018-11-28T09:33:59.725Z,7572.00
2018-11-28T09:34:59.714Z,7600.00
2018-11-28T09:35:59.714Z,7640.00
2018-11-28T09:36:59.691Z,7696.00
2018-11-28T09:37:59.678Z,7664.00
2018-11-28T09:38:59.665Z,7736.00
2018-11-28T09:39:59.654Z,7828.00
2018-11-28T09:40:59.643Z,7876.00
2018-11-28T09:41:59.634Z,7840.00
2018-11-28T09:42:59.622Z,7940.00
2018-11-28T09:43:59.610Z,7980.00
2018-11-28T09:44:59.596Z,8136.00
2018-11-28T09:45:59.590Z,8224.00
2018-11-28T09:46:59.576Z,8380.00
2018-11-28T09:47:59.565Z,8516.00
2018-11-28T09:48:59.552Z,8528.00
2018-11-28T09:49:59.540Z,8164.00
2018-11-28T09:50:59.539Z,7084.00
2018-11-28T09:51:59.518Z,7160.00
2018-11-28T09:52:59.507Z,8200.00
2018-11-28T09:53:59.496Z,9056.00
2018-11-28T09:54:59.484Z,9164.00
2018-11-28T09:55:59.473Z,9048.00
2018-11-28T09:56:59.461Z,9116.00
2018-11-28T09:57:59.451Z,9156.00
2018-11-28T09:58:59.446Z,9236.00
2018-11-28T09:59:59.434Z,9308.00
2018-11-28T10:00:59.418Z,9328.00
2018-11-28T10:01:59.410Z,9532.00
2018-11-28T10:02:59.394Z,9472.00
2018-11-28T10:03:59.388Z,9336.00
2018-11-28T10:05:02.671Z,9344.00
2018-11-28T10:05:59.364Z,9436.00
2018-11-28T10:06:59.350Z,9756.00
2018-11-28T10:07:59.339Z,9692.00
2018-11-28T10:08:59.329Z,9776.00
2018-11-28T10:09:59.318Z,9968.00
2018-11-28T10:10:59.307Z,10148.00
2018-11-28T10:11:59.297Z,10340.00
2018-11-28T10:12:59.284Z,10408.00
2018-11-28T10:13:59.275Z,10572.00
2018-11-28T10:14:59.263Z,10800.00
2018-11-28T10:15:59.253Z,11032.00
2018-11-28T10:16:59.247Z,11128.00
2018-11-28T10:17:59.231Z,11396.00
2018-11-28T10:18:59.217Z,11860.00
2018-11-28T10:19:59.213Z,12228.00
2018-11-28T10:20:59.232Z,12636.00
2018-11-28T10:21:59.184Z,12612.00
2018-11-28T10:22:59.177Z,12424.00
2018-11-28T10:23:59.162Z,12404.00
2018-11-28T10:24:59.153Z,12500.00
2018-11-28T10:25:59.145Z,12600.00
2018-11-28T10:26:59.130Z,12844.00
2018-11-28T10:27:59.158Z,12940.00
2018-11-28T10:28:59.106Z,12980.00
2018-11-28T10:29:59.102Z,13088.00
2018-11-28T10:30:59.090Z,12944.00
2018-11-28T10:31:59.080Z,12960.00
2018-11-28T10:32:59.065Z,12792.00
2018-11-28T10:33:59.052Z,12712.00
2018-11-28T10:34:59.040Z,12936.00
2018-11-28T10:35:59.032Z,13160.00
2018-11-28T10:36:59.025Z,12972.00
2018-11-28T10:37:59.012Z,13248.00
2018-11-28T10:38:58.996Z,13408.00
2018-11-28T10:39:58.985Z,13376.00
2018-11-28T10:40:58.973Z,13392.00
2018-11-28T10:41:58.966Z,12996.00
2018-11-28T10:42:58.950Z,12852.00
2018-11-28T10:43:58.948Z,13140.00
2018-11-28T10:44:58.938Z,13784.00
2018-11-28T10:45:58.918Z,14248.00
2018-11-28T10:46:58.906Z,14316.00
2018-11-28T10:47:58.896Z,14760.00
2018-11-28T10:48:58.885Z,15144.00
2018-11-28T10:49:58.883Z,15784.00
2018-11-28T10:50:58.861Z,16368.00
2018-11-28T10:52:00.261Z,16272.00
2018-11-28T10:52:58.839Z,16604.00
2018-11-28T10:53:58.827Z,17312.00
2018-11-28T10:54:58.816Z,17728.00
2018-11-28T10:55:58.806Z,18080.00
2018-11-28T10:56:58.794Z,17888.00
2018-11-28T10:57:58.782Z,17472.00
2018-11-28T10:58:58.775Z,17536.00
2018-11-28T10:59:58.767Z,17760.00
2018-11-28T11:00:58.756Z,17536.00
2018-11-28T11:01:58.744Z,16548.00
2018-11-28T11:02:58.732Z,15788.00
2018-11-28T11:03:58.717Z,15796.00
2018-11-28T11:04:58.763Z,15836.00
2018-11-28T11:05:58.696Z,15272.00
2018-11-28T11:06:58.689Z,15344.00
2018-11-28T11:07:58.695Z,15668.00
2018-11-28T11:08:58.660Z,15344.00
2018-11-28T11:09:58.654Z,15004.00
2018-11-28T11:10:58.636Z,14920.00
2018-11-28T11:11:58.624Z,14492.00
2018-11-28T11:12:58.617Z,14192.00
2018-11-28T11:13:58.601Z,14140.00
2018-11-28T11:14:58.591Z,14292.00
2018-11-28T11:15:58.625Z,14404.00
2018-11-28T11:16:58.570Z,14556.00
2018-11-28T11:18:02.117Z,14560.00
2018-11-28T11:18:58.562Z,14648.00
2018-11-28T11:19:58.540Z,14680.00
2018-11-28T11:20:58.525Z,14524.00
2018-11-28T11:21:58.512Z,13044.00
2018-11-28T11:22:58.501Z,13784.00
2018-11-28T11:23:58.488Z,15332.00
2018-11-28T11:24:58.477Z,15548.00
2018-11-28T11:25:58.469Z,15680.00
2018-11-28T11:26:58.457Z,15732.00
2018-11-28T11:27:58.443Z,15968.00
2018-11-28T11:28:58.432Z,16160.00
2018-11-28T11:29:58.457Z,16128.00
2018-11-28T11:30:58.519Z,16000.00
2018-11-28T11:31:58.399Z,15904.00
2018-11-28T11:32:58.388Z,15852.00
2018-11-28T11:33:58.378Z,16096.00
2018-11-28T11:34:58.369Z,16224.00
2018-11-28T11:35:58.352Z,16288.00
2018-11-28T11:36:58.341Z,16320.00
2018-11-28T11:37:58.333Z,16160.00
2018-11-28T11:38:58.321Z,15620.00
2018-11-28T11:39:58.310Z,14616.00
2018-11-28T11:40:58.302Z,14324.00
2018-11-28T11:41:58.290Z,14076.00
2018-11-28T11:42:58.276Z,13592.00
2018-11-28T11:43:58.263Z,13168.00
2018-11-28T11:44:58.251Z,12736.00
2018-11-28T11:45:58.240Z,12628.00
2018-11-28T11:46:58.229Z,11556.00
2018-11-28T11:47:58.219Z,7668.00
2018-11-28T11:48:58.210Z,5088.00
2018-11-28T11:49:58.200Z,5144.00
2018-11-28T11:50:58.195Z,6064.00
2018-11-28T11:51:58.180Z,9772.00
2018-11-28T11:52:58.160Z,11892.00
2018-11-28T11:53:58.149Z,11024.00
2018-11-28T11:54:58.138Z,9156.00
2018-11-28T11:55:58.132Z,7612.00
2018-11-28T11:56:58.117Z,7372.00
2018-11-28T11:57:58.105Z,8664.00
2018-11-28T11:58:58.095Z,9444.00
2018-11-28T11:59:58.087Z,9100.00
2018-11-28T12:00:58.072Z,8668.00
2018-11-28T12:01:58.061Z,8500.00
2018-11-28T12:02:58.054Z,8164.00
2018-11-28T12:03:58.085Z,7624.00
2018-11-28T12:04:58.026Z,6816.00
2018-11-28T12:05:58.016Z,5588.00
2018-11-28T12:06:58.004Z,4964.00
2018-11-28T12:07:57.998Z,5288.00
2018-11-28T12:08:57.988Z,6444.00
2018-11-28T12:09:57.973Z,7256.00
2018-11-28T12:10:57.962Z,7720.00
2018-11-28T12:11:57.949Z,8172.00
2018-11-28T12:12:57.938Z,8548.00
2018-11-28T12:13:57.929Z,8880.00
2018-11-28T12:14:57.922Z,8916.00
2018-11-28T12:15:57.954Z,8704.00
2018-11-28T12:16:57.899Z,8320.00
2018-11-28T12:17:57.883Z,7936.00
2018-11-28T12:18:57.872Z,7496.00
2018-11-28T12:19:57.866Z,6576.00
2018-11-28T12:20:57.855Z,5628.00
2018-11-28T12:21:57.839Z,5556.00
2018-11-28T12:22:57.828Z,6080.00
2018-11-28T12:23:57.821Z,6768.00
2018-11-28T12:24:57.809Z,8104.00
2018-11-28T12:25:57.793Z,9388.00
2018-11-28T12:26:57.782Z,9672.00
2018-11-28T12:27:57.772Z,9608.00
2018-11-28T12:28:57.760Z,9300.00
2018-11-28T12:29:57.753Z,9044.00
2018-11-28T12:30:57.795Z,8324.00
2018-11-28T12:31:57.727Z,7828.00
2018-11-28T12:32:57.716Z,7372.00
2018-11-28T12:33:57.708Z,7004.00
2018-11-28T12:34:57.697Z,6796.00
2018-11-28T12:35:57.684Z,6696.00
2018-11-28T12:36:57.679Z,6672.00
2018-11-28T12:37:57.662Z,6788.00
2018-11-28T12:38:57.652Z,6880.00
2018-11-28T12:39:57.644Z,6808.00
2018-11-28T12:40:57.638Z,6568.00
2018-11-28T12:41:57.620Z,6548.00
2018-11-28T12:42:57.613Z,6764.00
2018-11-28T12:43:57.594Z,6700.00
2018-11-28T12:44:57.585Z,6680.00
2018-11-28T12:45:57.577Z,6420.00
2018-11-28T12:46:57.562Z,5888.00
2018-11-28T12:47:57.558Z,5900.00
2018-11-28T12:48:57.547Z,6308.00
2018-11-28T12:49:57.529Z,6312.00
2018-11-28T12:50:57.529Z,6316.00
2018-11-28T12:51:57.532Z,6276.00
2018-11-28T12:52:57.535Z,6268.00
2018-11-28T12:53:57.540Z,6368.00
2018-11-28T12:54:57.477Z,6484.00
2018-11-28T12:55:57.482Z,6336.00
2018-11-28T12:56:57.490Z,6392.00
2018-11-28T12:57:57.559Z,6288.00
2018-11-28T12:58:57.432Z,6084.00
2018-11-28T12:59:57.424Z,5968.00
2018-11-28T13:00:57.408Z,5876.00
2018-11-28T13:01:57.399Z,5624.00
2018-11-28T13:02:57.390Z,5396.00
2018-11-28T13:03:57.380Z,5008.00
2018-11-28T13:04:59.837Z,4420.00
2018-11-28T13:05:57.350Z,4100.00
2018-11-28T13:06:57.339Z,4028.00
2018-11-28T13:07:57.329Z,3952.00
2018-11-28T13:08:57.317Z,3924.00
2018-11-28T13:09:57.307Z,3900.00
2018-11-28T13:10:57.295Z,3560.00
2018-11-28T13:12:00.025Z,3412.00
2018-11-28T13:12:57.354Z,3612.00
2018-11-28T13:13:57.261Z,3600.00
2018-11-28T13:14:57.256Z,3556.00
2018-11-28T13:15:57.239Z,3456.00
2018-11-28T13:16:57.232Z,3400.00
2018-11-28T13:17:57.221Z,3368.00
2018-11-28T13:18:57.206Z,3320.00
2018-11-28T13:19:59.069Z,3260.00
2018-11-28T13:20:57.185Z,3196.00
2018-11-28T13:21:57.170Z,3140.00
2018-11-28T13:22:57.164Z,3112.00
2018-11-28T13:23:57.147Z,3044.00
2018-11-28T13:24:57.141Z,2980.00
2018-11-28T13:25:57.125Z,2588.00
2018-11-28T13:26:57.112Z,2788.00
2018-11-28T13:27:57.100Z,2736.00
2018-11-28T13:28:57.095Z,2720.00
2018-11-28T13:29:57.090Z,2668.00
2018-11-28T13:30:57.068Z,2632.00
2018-11-28T13:31:57.058Z,2540.00
2018-11-28T13:32:57.045Z,2512.00
2018-11-28T13:33:57.035Z,2488.00
2018-11-28T13:34:57.029Z,2464.00
2018-11-28T13:35:57.010Z,2412.00
2018-11-28T13:36:56.999Z,2352.00
2018-11-28T13:37:56.990Z,2320.00
2018-11-28T13:38:56.979Z,2288.00
2018-11-28T13:39:56.968Z,2268.00
2018-11-28T13:40:56.954Z,2236.00
2018-11-28T13:41:56.941Z,2200.00
2018-11-28T13:42:56.933Z,2164.00
2018-11-28T13:43:56.918Z,2132.00
2018-11-28T13:44:56.907Z,2088.00
2018-11-28T13:45:56.900Z,2032.00
2018-11-28T13:46:56.885Z,1988.00
2018-11-28T13:47:56.876Z,1952.00
2018-11-28T13:48:56.870Z,1916.00
2018-11-28T13:49:56.855Z,1892.00
2018-11-28T13:50:56.842Z,1860.00
2018-11-28T13:51:56.837Z,1800.00
2018-11-28T13:52:56.819Z,1784.00
2018-11-28T13:53:56.817Z,1576.00
2018-11-28T13:57:45.741Z,1524.00
2018-11-28T13:58:45.731Z,1484.00
2018-11-28T13:59:45.729Z,1420.00
2018-11-28T14:00:45.711Z,1376.00
2018-11-28T14:01:45.698Z,1364.00
2018-11-28T14:02:45.684Z,1288.00
2018-11-28T14:03:45.675Z,1236.00
2018-11-28T14:04:45.664Z,1240.00
2018-11-28T14:05:45.653Z,1248.00
2018-11-28T14:06:45.640Z,1248.00
2018-11-28T14:07:45.630Z,1208.00
2018-11-28T14:08:45.618Z,1172.00
2018-11-28T14:09:45.609Z,1144.00
2018-11-28T14:10:45.597Z,1128.00
2018-11-28T14:11:45.595Z,1108.00
2018-11-28T14:12:45.580Z,1092.00
2018-11-28T14:13:45.574Z,1080.00
2018-11-28T14:14:45.559Z,1064.00
2018-11-28T14:15:45.571Z,1048.00
2018-11-28T14:16:45.539Z,1016.00
2018-11-28T14:17:45.526Z,980.00
2018-11-28T14:18:45.512Z,928.00
2018-11-28T14:19:45.505Z,908.00
2018-11-28T14:20:45.490Z,868.00
2018-11-28T14:21:45.479Z,816.00
2018-11-28T14:22:45.468Z,784.00
2018-11-28T14:23:45.456Z,744.00
2018-11-28T14:24:45.453Z,704.00
2018-11-28T14:25:45.440Z,676.00
2018-11-28T14:26:45.423Z,644.00
2018-11-28T14:27:45.416Z,620.00
2018-11-28T14:28:45.401Z,600.00
2018-11-28T14:29:45.394Z,580.00
2018-11-28T14:30:45.383Z,592.00
2018-11-28T14:31:45.372Z,592.00
2018-11-28T14:32:45.356Z,576.00
2018-11-28T14:33:45.347Z,556.00
2018-11-28T14:34:45.334Z,540.00
2018-11-28T14:35:45.324Z,516.00
2018-11-28T14:36:45.311Z,496.00
2018-11-28T14:37:45.300Z,480.00
2018-11-28T14:38:45.291Z,464.00
2018-11-28T14:39:45.282Z,444.00
2018-11-28T14:40:45.266Z,428.00
2018-11-28T14:41:45.260Z,408.00
2018-11-28T14:42:45.250Z,392.00
2018-11-28T14:43:45.259Z,376.00
2018-11-28T14:44:45.221Z,364.00
2018-11-28T14:45:45.209Z,312.00
2018-11-28T14:46:45.239Z,296.00
2018-11-28T14:47:45.203Z,280.00
2018-11-28T14:48:45.176Z,264.00
2018-11-28T14:49:45.164Z,248.00
2018-11-28T14:50:45.159Z,236.00
2018-11-28T14:51:45.142Z,220.00
2018-11-28T14:52:45.132Z,208.00
2018-11-28T14:53:48.048Z,196.00
2018-11-28T14:54:45.108Z,180.00
2018-11-28T14:55:45.098Z,168.00
2018-11-28T14:56:45.087Z,160.00
2018-11-28T14:57:45.075Z,148.00
2018-11-28T14:58:45.064Z,136.00
2018-11-28T14:59:45.057Z,128.00
2018-11-28T15:00:45.042Z,116.00
2018-11-28T15:01:45.031Z,108.00
2018-11-28T15:02:45.019Z,100.00
2018-11-28T15:03:45.008Z,88.00
2018-11-28T15:04:45.001Z,80.00
2018-11-28T15:05:44.985Z,76.00
2018-11-28T15:06:44.982Z,68.00
2018-11-28T15:07:44.969Z,60.00
2018-11-28T15:08:44.952Z,56.00
2018-11-28T15:09:44.942Z,52.00
2018-11-28T15:10:44.930Z,48.00
2018-11-28T15:11:44.918Z,40.00
2018-11-28T15:12:44.913Z,36.00
2018-11-28T15:13:44.897Z,32.00
2018-11-28T15:14:44.883Z,28.00
2018-11-28T15:15:44.874Z,24.00
2018-11-28T15:16:44.916Z,20.00
2018-11-28T15:17:44.856Z,20.00
2018-11-28T15:18:44.848Z,16.00
2018-11-28T15:19:44.827Z,16.00
2018-11-28T15:20:44.817Z,12.00
2018-11-28T15:21:44.804Z,12.00
2018-11-28T15:22:44.799Z,8.00
2018-11-28T15:23:44.790Z,12.00
2018-11-28T15:24:44.777Z,8.00
2018-11-28T15:25:44.761Z,4.00
2018-11-28T15:26:44.752Z,8.00
2018-11-28T15:27:44.743Z,4.00
2018-11-28T15:28:44.727Z,4.00
2018-11-28T15:29:44.722Z,4.00
2018-11-28T15:30:44.720Z,4.00
2018-11-28T15:31:44.705Z,4.00
2018-11-28T15:32:44.685Z,4.00
2018-11-28T15:33:44.678Z,4.00
2018-11-28T15:34:44.668Z,4.00
2018-11-28T15:35:44.651Z,4.00
2018-11-28T15:36:44.645Z,4.00
2018-11-28T15:37:44.629Z,4.00
2018-11-28T15:38:44.637Z,4.00
2018-11-28T15:39:44.608Z,4.00
2018-11-28T15:40:44.600Z,4.00
2018-11-28T15:41:44.587Z,4.00
2018-11-28T15:42:44.572Z,4.00
2018-11-28T15:43:44.571Z,4.00
2018-11-28T20:38:41.302Z,0.00
2018-11-28T20:50:41.167Z,0.00
2018-11-28T20:56:41.103Z,0.00
2018-11-28T20:58:41.079Z,0.00
2018-11-28T21:02:41.039Z,0.00
2018-11-28T21:04:41.014Z,0.00
2018-11-28T21:06:40.994Z,0.00
2018-11-28T21:16:40.886Z,0.00
2018-11-28T21:17:40.869Z,0.00
2018-11-28T21:20:40.842Z,0.00
2018-11-28T21:23:40.805Z,0.00
2018-11-28T21:24:40.793Z,0.00
2018-11-28T21:25:40.779Z,0.00
2018-11-28T21:28:40.746Z,0.00
2018-11-28T21:30:40.724Z,0.00
2018-11-28T21:32:40.702Z,0.00
2018-11-28T21:36:40.660Z,0.00
2018-11-28T21:37:40.644Z,0.00
2018-11-28T21:38:40.642Z,0.00
2018-11-28T21:39:40.630Z,0.00
2018-11-28T21:43:40.580Z,0.00
2018-11-28T21:45:40.565Z,0.00
2018-11-28T22:00:40.393Z,0.00
